createdAt,value
2019-06-01T00:00:11.767Z,1017.66
2019-06-01T00:00:49.625Z,1017.66
2019-06-01T00:01:30.191Z,1017.67
2019-06-01T00:02:10.775Z,1017.64
2019-06-01T00:02:55.743Z,1017.69
2019-06-01T00:03:31.897Z,1017.66
2019-06-01T00:04:12.452Z,1017.67
2019-06-01T00:04:53.026Z,1017.66
2019-06-01T00:05:33.584Z,1017.64
2019-06-01T00:06:14.156Z,1017.64
2019-06-01T00:06:54.718Z,1017.59
2019-06-01T00:07:35.290Z,1017.61
2019-06-01T00:08:15.848Z,1017.57
2019-06-01T00:08:56.404Z,1017.64
2019-06-01T00:09:37.203Z,1017.61
2019-06-01T00:10:17.774Z,1017.58
2019-06-01T00:10:58.355Z,1017.64
2019-06-01T00:11:39.222Z,1017.63
2019-06-01T00:12:19.477Z,1017.61
2019-06-01T00:13:00.038Z,1017.57
2019-06-01T00:13:41.526Z,1017.59
2019-06-01T00:14:21.163Z,1017.59
2019-06-01T00:15:01.731Z,1017.6
2019-06-01T00:15:42.316Z,1017.61
2019-06-01T00:16:22.903Z,1017.61
2019-06-01T00:17:03.465Z,1017.57
2019-06-01T00:17:44.023Z,1017.6
2019-06-01T00:18:24.593Z,1017.54
2019-06-01T00:19:05.188Z,1017.6
2019-06-01T00:19:46.245Z,1017.6
2019-06-01T00:20:26.329Z,1017.61
2019-06-01T00:21:06.895Z,1017.59
2019-06-01T00:21:47.501Z,1017.61
2019-06-01T00:22:28.017Z,1017.57
2019-06-01T00:23:08.592Z,1017.58
2019-06-01T00:23:49.180Z,1017.56
2019-06-01T00:24:29.747Z,1017.58
2019-06-01T00:25:10.307Z,1017.57
2019-06-01T00:25:50.865Z,1017.57
2019-06-01T00:26:31.429Z,1017.6
2019-06-01T00:27:11.992Z,1017.54
2019-06-01T00:27:52.876Z,1017.61
2019-06-01T00:28:33.124Z,1017.56
2019-06-01T00:29:13.693Z,1017.58
2019-06-01T00:29:54.263Z,1017.61
2019-06-01T00:30:34.831Z,1017.6
2019-06-01T00:31:15.398Z,1017.6
2019-06-01T00:31:55.971Z,1017.59
2019-06-01T00:32:36.561Z,1017.58
2019-06-01T00:33:17.116Z,1017.6
2019-06-01T00:33:57.680Z,1017.57
2019-06-01T00:34:38.252Z,1017.54
2019-06-01T00:35:18.799Z,1017.55
2019-06-01T00:35:59.362Z,1017.52
2019-06-01T00:36:39.944Z,1017.51
2019-06-01T00:37:20.494Z,1017.51
2019-06-01T00:38:01.067Z,1017.54
2019-06-01T00:38:41.738Z,1017.57
2019-06-01T00:39:22.207Z,1017.57
2019-06-01T00:42:21.031Z,1017.56
2019-06-01T00:43:01.589Z,1017.55
2019-06-01T00:43:42.163Z,1017.53
2019-06-01T00:44:22.702Z,1017.53
2019-06-01T00:45:03.277Z,1017.52
2019-06-01T00:45:44.442Z,1017.51
2019-06-01T00:46:24.400Z,1017.54
2019-06-01T00:47:04.955Z,1017.52
2019-06-01T00:47:46.639Z,1017.48
2019-06-01T00:48:26.084Z,1017.45
2019-06-01T00:49:06.638Z,1017.5
2019-06-01T00:49:47.209Z,1017.49
2019-06-01T00:50:27.763Z,1017.49
2019-06-01T00:51:08.329Z,1017.5
2019-06-01T00:51:49.126Z,1017.48
2019-06-01T00:52:29.482Z,1017.51
2019-06-01T00:53:10.047Z,1017.5
2019-06-01T00:53:51.797Z,1017.45
2019-06-01T08:05:41.825Z,1017.81
2019-06-01T08:06:23.943Z,1017.82
2019-06-01T08:07:03.754Z,1017.78
2019-06-01T08:07:44.375Z,1017.82
2019-06-01T08:08:25.286Z,1017.77
2019-06-01T08:09:06.015Z,1017.8
2019-06-01T08:09:46.878Z,1017.79
2019-06-01T08:10:27.756Z,1017.75
2019-06-01T08:11:08.633Z,1017.78
2019-06-01T08:11:49.553Z,1017.79
2019-06-01T08:12:31.548Z,1017.78
2019-06-01T08:13:10.784Z,1017.78
2019-06-01T08:13:51.493Z,1017.81
2019-06-01T08:14:32.838Z,1017.79
2019-06-01T08:15:12.966Z,1017.82
2019-06-01T08:15:53.617Z,1017.84
2019-06-01T08:16:34.454Z,1017.81
2019-06-01T08:17:16.251Z,1017.86
2019-06-01T08:17:56.823Z,1017.78
2019-06-01T08:18:37.611Z,1017.75
2019-06-01T08:19:18.244Z,1017.78
2019-06-01T08:19:58.862Z,1017.77
2019-06-01T08:20:39.441Z,1017.82
2019-06-01T08:21:20.038Z,1017.78
2019-06-01T08:22:00.696Z,1017.8
2019-06-01T08:22:41.603Z,1017.74
2019-06-01T08:23:22.426Z,1017.73
2019-06-01T08:24:03.125Z,1017.75
2019-06-01T08:24:43.851Z,1017.75
2019-06-01T08:25:24.846Z,1017.72
2019-06-01T08:26:05.756Z,1017.73
2019-06-01T08:26:46.418Z,1017.73
2019-06-01T08:27:26.997Z,1017.75
2019-06-01T08:28:07.573Z,1017.76
2019-06-01T08:28:48.170Z,1017.76
2019-06-01T08:29:28.929Z,1017.76
2019-06-01T08:32:28.676Z,1017.73
2019-06-01T08:33:08.538Z,1017.71
2019-06-01T08:33:49.567Z,1017.66
2019-06-01T08:34:31.053Z,1017.66
2019-06-01T08:35:11.140Z,1017.65
2019-06-01T08:35:51.853Z,1017.64
2019-06-01T08:36:33.857Z,1017.63
2019-06-01T08:37:13.534Z,1017.61
2019-06-01T08:37:54.126Z,1017.62
2019-06-01T08:38:34.710Z,1017.61
2019-06-01T08:39:15.411Z,1017.58
2019-06-01T08:39:59.091Z,1017.58
2019-06-01T08:40:36.575Z,1017.59
2019-06-01T08:41:17.161Z,1017.57
2019-06-01T08:41:57.781Z,1017.54
2019-06-01T08:42:38.388Z,1017.54
2019-06-01T08:43:18.969Z,1017.54
2019-06-01T08:43:59.570Z,1017.57
2019-06-01T08:44:40.162Z,1017.5
2019-06-01T08:45:20.776Z,1017.5
2019-06-01T08:46:01.353Z,1017.48
2019-06-01T08:46:41.951Z,1017.52
2019-06-01T08:47:23.582Z,1017.55
2019-06-01T08:48:03.124Z,1017.52
2019-06-01T08:48:43.717Z,1017.54
2019-06-01T08:49:25.772Z,1017.51
2019-06-01T08:50:04.897Z,1017.54
2019-06-01T08:50:46.247Z,1017.56
2019-06-01T08:51:27.001Z,1017.5
2019-06-01T08:52:07.158Z,1017.52
2019-06-01T08:52:47.726Z,1017.51
2019-06-01T08:53:28.367Z,1017.5
2019-06-01T08:54:08.977Z,1017.5
2019-06-01T08:54:49.723Z,1017.52
2019-06-01T08:55:30.286Z,1017.5
2019-06-01T08:56:10.906Z,1017.48
2019-06-01T08:56:51.545Z,1017.46
2019-06-01T08:57:32.421Z,1017.46
2019-06-01T08:58:12.811Z,1017.48
2019-06-01T08:58:53.491Z,1017.42
2019-06-01T08:59:34.566Z,1017.42
2019-06-01T09:00:14.802Z,1017.38
2019-06-01T09:00:55.405Z,1017.41
2019-06-01T09:01:36.273Z,1017.32
2019-06-01T09:02:17.768Z,1017.34
2019-06-01T09:02:59.368Z,1017.36
2019-06-01T09:03:46.466Z,1017.3
2019-06-01T09:04:24.550Z,1017.31
2019-06-01T09:05:05.373Z,1017.33
2019-06-01T09:05:47.119Z,1017.32
2019-06-01T09:06:29.257Z,1017.32
2019-06-01T09:07:12.068Z,1017.33
2019-06-01T09:07:54.626Z,1017.32
2019-06-01T09:08:37.279Z,1017.34
2019-06-01T09:09:18.363Z,1017.31
2019-06-01T09:09:59.543Z,1017.29
2019-06-01T09:10:40.249Z,1017.29
2019-06-01T09:11:21.162Z,1017.28
2019-06-01T09:12:02.342Z,1017.25
2019-06-01T09:12:43.243Z,1017.21
2019-06-01T09:13:25.010Z,1017.22
2019-06-01T09:14:04.463Z,1017.2
2019-06-01T09:14:45.433Z,1017.22
2019-06-01T09:15:27.424Z,1017.22
2019-06-01T09:16:06.844Z,1017.16
2019-06-01T09:16:47.500Z,1017.2
2019-06-01T09:17:29.395Z,1017.21
2019-06-01T09:18:08.993Z,1017.17
2019-06-01T09:18:49.617Z,1017.18
2019-06-01T09:19:31.414Z,1017.19
2019-06-01T09:20:11.510Z,1017.18
2019-06-01T09:20:52.400Z,1017.22
2019-06-01T09:21:33.623Z,1017.24
2019-06-01T09:22:14.291Z,1017.27
2019-06-01T09:22:55.679Z,1017.25
2019-06-01T09:23:37.535Z,1017.23
2019-06-01T09:24:17.309Z,1017.25
2019-06-01T09:24:58.133Z,1017.25
2019-06-01T09:25:39.094Z,1017.28
2019-06-01T09:26:19.675Z,1017.21
2019-06-01T09:27:00.492Z,1017.24
2019-06-01T09:27:41.252Z,1017.24
2019-06-01T09:28:22.064Z,1017.24
2019-06-01T09:29:02.982Z,1017.25
2019-06-01T09:29:44.725Z,1017.24
2019-06-01T09:30:26.110Z,1017.22
2019-06-01T09:31:07.897Z,1017.24
2019-06-01T09:31:50.585Z,1017.24
2019-06-01T09:32:34.256Z,1017.22
2019-06-01T09:33:18.200Z,1017.26
2019-06-01T09:34:01.311Z,1017.23
2019-06-01T09:34:42.448Z,1017.2
2019-06-01T09:35:40.536Z,1017.23
2019-06-01T09:36:05.390Z,1017.19
2019-06-01T09:36:47.291Z,1017.22
2019-06-01T09:37:28.341Z,1017.24
2019-06-01T09:38:08.985Z,1017.23
2019-06-01T09:38:49.860Z,1017.23
2019-06-01T09:39:30.956Z,1017.19
2019-06-01T09:40:11.344Z,1017.23
2019-06-01T09:40:52.275Z,1017.17
2019-06-01T09:41:32.985Z,1017.19
2019-06-01T09:42:13.907Z,1017.16
2019-06-01T09:42:54.554Z,1017.14
2019-06-01T09:43:35.344Z,1017.13
2019-06-01T09:44:15.967Z,1017.14
2019-06-01T09:44:57.059Z,1017.11
2019-06-01T09:45:38.335Z,1017.1
2019-06-01T09:46:18.630Z,1017.09
2019-06-01T09:46:59.326Z,1017.12
2019-06-01T09:47:39.943Z,1017.13
2019-06-01T09:48:20.597Z,1017.15
2019-06-01T09:49:01.229Z,1017.15
2019-06-01T09:49:41.926Z,1017.19
2019-06-01T09:50:22.571Z,1017.17
2019-06-01T09:51:03.382Z,1017.14
2019-06-01T09:51:44.010Z,1017.11
2019-06-01T09:52:24.620Z,1017.19
2019-06-01T09:53:05.213Z,1017.13
2019-06-01T09:53:45.865Z,1017.15
2019-06-01T09:54:27.307Z,1017.14
2019-06-01T09:55:07.319Z,1017.13
2019-06-01T09:55:47.916Z,1017.2
2019-06-01T09:56:29.619Z,1017.17
2019-06-01T09:57:09.275Z,1017.15
2019-06-01T09:57:49.958Z,1017.12
2019-06-01T09:58:30.655Z,1017.14
2019-06-01T09:59:11.339Z,1017.08
2019-06-01T09:59:51.917Z,1017.12
2019-06-01T10:00:32.637Z,1017.09
2019-06-01T10:01:13.317Z,1017.08
2019-06-01T10:01:54.199Z,1017.1
2019-06-01T10:02:36.108Z,1017.11
2019-06-01T10:03:15.669Z,1017.08
2019-06-01T10:03:56.570Z,1017.12
2019-06-01T10:04:38.614Z,1017.13
2019-06-01T10:05:17.966Z,1017.1
2019-06-01T10:06:02.050Z,1017.07
2019-06-01T10:06:39.276Z,1017.09
2019-06-01T10:07:19.978Z,1017.1
2019-06-01T10:08:00.607Z,1017.08
2019-06-01T10:08:42.398Z,1017.09
2019-06-01T10:09:21.993Z,1017.1
2019-06-01T10:10:02.720Z,1017.13
2019-06-01T10:10:43.348Z,1017.1
2019-06-01T10:11:24.007Z,1017.13
2019-06-01T10:12:04.621Z,1017.12
2019-06-01T10:12:45.301Z,1017.11
2019-06-01T10:13:25.925Z,1017.16
2019-06-01T10:14:06.715Z,1017.12
2019-06-01T10:14:47.328Z,1017.1
2019-06-01T10:15:28.023Z,1017.06
2019-06-01T10:16:08.676Z,1017.03
2019-06-01T10:16:49.328Z,1017.09
2019-06-01T10:17:30.511Z,1016.99
2019-06-01T10:18:10.628Z,1017.05
2019-06-01T10:18:51.419Z,1017.01
2019-06-01T10:19:32.646Z,1016.99
2019-06-01T10:20:13.970Z,1016.97
2019-06-01T10:20:56.294Z,1016.89
2019-06-01T10:21:38.029Z,1016.94
2019-06-01T10:22:18.093Z,1016.91
2019-06-01T10:22:59.320Z,1016.89
2019-06-01T10:23:40.227Z,1016.88
2019-06-01T10:24:21.602Z,1016.88
2019-06-01T10:25:03.134Z,1016.84
2019-06-01T10:25:43.796Z,1016.88
2019-06-01T10:26:24.609Z,1016.86
2019-06-01T10:27:05.528Z,1016.85
2019-06-01T10:27:47.102Z,1016.91
2019-06-01T10:28:27.942Z,1016.86
2019-06-01T10:29:09.555Z,1016.88
2019-06-01T10:29:50.636Z,1016.84
2019-06-01T10:30:33.948Z,1016.88
2019-06-01T10:31:14.586Z,1016.91
2019-06-01T10:31:55.326Z,1016.87
2019-06-01T10:32:37.774Z,1016.83
2019-06-01T10:33:18.357Z,1016.87
2019-06-01T10:33:59.982Z,1016.82
2019-06-01T10:34:43.138Z,1016.79
2019-06-01T10:35:25.481Z,1016.74
2019-06-01T10:36:19.615Z,1016.79
2019-06-01T10:36:49.209Z,1016.76
2019-06-01T10:37:33.311Z,1016.75
2019-06-01T10:38:13.823Z,1016.76
2019-06-01T10:38:54.447Z,1016.75
2019-06-01T10:39:35.328Z,1016.76
2019-06-01T10:40:15.866Z,1016.72
2019-06-01T10:40:56.832Z,1016.75
2019-06-01T10:41:37.556Z,1016.78
2019-06-01T10:42:18.151Z,1016.74
2019-06-01T10:42:58.877Z,1016.7
2019-06-01T10:43:39.838Z,1016.7
2019-06-01T10:44:20.424Z,1016.67
2019-06-01T10:45:01.140Z,1016.62
2019-06-01T10:45:42.025Z,1016.64
2019-06-01T10:46:22.353Z,1016.62
2019-06-01T10:47:02.989Z,1016.61
2019-06-01T10:47:43.675Z,1016.59
2019-06-01T10:48:24.423Z,1016.63
2019-06-01T10:49:05.030Z,1016.54
2019-06-01T10:49:45.609Z,1016.54
2019-06-01T10:50:26.232Z,1016.54
2019-06-01T10:51:06.846Z,1016.52
2019-06-01T10:51:47.501Z,1016.54
2019-06-01T10:52:28.255Z,1016.55
2019-06-01T10:53:08.918Z,1016.5
2019-06-01T10:53:49.570Z,1016.49
2019-06-01T10:54:30.309Z,1016.48
2019-06-01T10:55:10.935Z,1016.51
2019-06-01T10:55:51.609Z,1016.55
2019-06-01T10:56:32.336Z,1016.5
2019-06-01T10:57:12.858Z,1016.56
2019-06-01T10:57:53.433Z,1016.57
2019-06-01T10:58:34.658Z,1016.59
2019-06-01T10:59:14.763Z,1016.56
2019-06-01T10:59:55.298Z,1016.57
2019-06-01T11:00:41.575Z,1016.59
2019-06-01T11:01:16.511Z,1016.61
2019-06-01T11:01:57.271Z,1016.57
2019-06-01T11:02:38.783Z,1016.59
2019-06-01T11:03:18.708Z,1016.6
2019-06-01T11:03:59.352Z,1016.58
2019-06-01T11:04:41.096Z,1016.56
2019-06-01T11:05:20.734Z,1016.54
2019-06-01T11:06:01.383Z,1016.53
2019-06-01T11:06:46.382Z,1016.59
2019-06-01T11:07:22.713Z,1016.54
2019-06-01T11:08:03.314Z,1016.49
2019-06-01T11:08:43.902Z,1016.48
2019-06-01T11:09:24.594Z,1016.47
2019-06-01T11:10:05.232Z,1016.45
2019-06-01T11:10:45.889Z,1016.41
2019-06-01T11:11:26.524Z,1016.37
2019-06-01T11:12:07.170Z,1016.4
2019-06-01T11:12:47.823Z,1016.39
2019-06-01T11:13:28.386Z,1016.33
2019-06-01T11:14:09.001Z,1016.3
2019-06-01T11:14:49.681Z,1016.29
2019-06-01T11:15:30.267Z,1016.3
2019-06-01T11:16:10.963Z,1016.33
2019-06-01T11:16:56.136Z,1016.35
2019-06-01T11:17:32.810Z,1016.33
2019-06-01T11:18:13.021Z,1016.31
2019-06-01T11:18:53.584Z,1016.38
2019-06-01T11:19:35.238Z,1016.35
2019-06-01T11:20:14.970Z,1016.31
2019-06-01T11:20:55.581Z,1016.31
2019-06-01T11:21:37.374Z,1016.32
2019-06-01T11:22:16.956Z,1016.21
2019-06-01T11:22:57.610Z,1016.33
2019-06-01T11:23:40.259Z,1016.32
2019-06-01T11:24:19.014Z,1016.32
2019-06-01T11:24:59.592Z,1016.32
2019-06-01T11:25:40.201Z,1016.35
2019-06-01T11:26:20.988Z,1016.38
2019-06-01T11:27:01.739Z,1016.36
2019-06-01T11:27:43.576Z,1016.32
2019-06-01T11:28:22.986Z,1016.31
2019-06-01T11:29:03.672Z,1016.33
2019-06-01T11:29:50.955Z,1016.31
2019-06-01T11:30:25.051Z,1016.3
2019-06-01T11:31:05.620Z,1016.24
2019-06-01T11:31:46.255Z,1016.22
2019-06-01T11:32:26.999Z,1016.25
2019-06-01T11:33:07.569Z,1016.25
2019-06-01T11:33:48.208Z,1016.27
2019-06-01T11:34:28.888Z,1016.26
2019-06-01T11:35:09.519Z,1016.21
2019-06-01T11:35:50.103Z,1016.24
2019-06-01T11:36:30.890Z,1016.23
2019-06-01T11:37:15.130Z,1016.22
2019-06-01T11:37:51.998Z,1016.2
2019-06-01T11:38:32.592Z,1016.16
2019-06-01T11:39:13.304Z,1016.16
2019-06-01T11:39:54.018Z,1016.16
2019-06-01T11:40:34.763Z,1016.18
2019-06-01T11:41:18.442Z,1016.17
2019-06-01T11:41:56.098Z,1016.17
2019-06-01T11:42:37.026Z,1016.14
2019-06-01T11:43:17.404Z,1016.15
2019-06-01T11:43:58.009Z,1016.12
2019-06-01T11:44:38.710Z,1016.13
2019-06-01T11:45:19.263Z,1016.11
2019-06-01T11:45:59.882Z,1016.12
2019-06-01T11:46:41.076Z,1016.04
2019-06-01T11:47:21.138Z,1016.07
2019-06-01T11:48:01.780Z,1016.07
2019-06-01T11:48:43.425Z,1016.08
2019-06-01T11:49:22.962Z,1016.07
2019-06-01T11:50:03.559Z,1016.05
2019-06-01T11:50:45.319Z,1016.02
2019-06-01T11:51:25.055Z,1016.05
2019-06-01T11:52:05.828Z,1016
2019-06-01T11:52:46.438Z,1016.05
2019-06-01T11:53:27.075Z,1016
2019-06-01T11:56:26.610Z,1015.91
2019-06-01T11:57:07.208Z,1015.93
2019-06-01T11:57:47.865Z,1015.93
2019-06-01T11:58:28.527Z,1015.92
2019-06-01T11:59:09.100Z,1015.93
2019-06-01T11:59:49.709Z,1015.92
2019-06-01T12:00:30.286Z,1015.91
2019-06-01T12:01:11.018Z,1015.94
2019-06-01T12:01:51.788Z,1015.94
2019-06-01T12:02:32.285Z,1015.88
2019-06-01T12:03:13.297Z,1015.96
2019-06-01T12:03:54.352Z,1015.93
2019-06-01T12:04:35.729Z,1015.96
2019-06-01T12:05:15.696Z,1015.86
2019-06-01T12:05:56.402Z,1015.94
2019-06-01T12:06:37.698Z,1015.94
2019-06-01T12:07:18.444Z,1015.92
2019-06-01T12:07:58.149Z,1015.91
2019-06-01T12:08:39.951Z,1015.96
2019-06-01T12:09:19.473Z,1015.93
2019-06-01T12:10:00.630Z,1015.94
2019-06-01T12:10:41.258Z,1015.91
2019-06-01T12:11:21.883Z,1015.93
2019-06-01T12:12:02.485Z,1015.94
2019-06-01T12:12:44.302Z,1015.96
2019-06-01T12:13:23.738Z,1015.9
2019-06-01T12:14:04.314Z,1015.91
2019-06-01T12:14:44.894Z,1015.91
2019-06-01T12:15:26.690Z,1015.9
2019-06-01T12:16:06.181Z,1015.88
2019-06-01T12:16:46.992Z,1015.81
2019-06-01T12:17:27.676Z,1015.78
2019-06-01T12:18:08.247Z,1015.84
2019-06-01T12:18:48.839Z,1015.81
2019-06-01T12:19:29.429Z,1015.77
2019-06-01T12:20:10.092Z,1015.79
2019-06-01T12:20:50.863Z,1015.78
2019-06-01T12:21:32.461Z,1015.71
2019-06-01T12:22:13.050Z,1015.7
2019-06-01T12:22:53.735Z,1015.64
2019-06-01T12:23:34.373Z,1015.64
2019-06-01T12:24:15.156Z,1015.62
2019-06-01T12:24:55.828Z,1015.59
2019-06-01T12:25:36.477Z,1015.6
2019-06-01T12:26:17.414Z,1015.59
2019-06-01T12:26:58.090Z,1015.52
2019-06-01T12:27:39.541Z,1015.54
2019-06-01T12:28:19.327Z,1015.59
2019-06-01T12:28:59.923Z,1015.57
2019-06-01T12:29:41.476Z,1015.51
2019-06-01T12:30:21.660Z,1015.52
2019-06-01T12:31:02.602Z,1015.49
2019-06-01T12:31:43.786Z,1015.51
2019-06-01T12:32:24.035Z,1015.48
2019-06-01T12:33:04.768Z,1015.51
2019-06-01T12:33:46.351Z,1015.51
2019-06-01T12:34:26.039Z,1015.52
2019-06-01T12:35:06.926Z,1015.49
2019-06-01T12:35:48.172Z,1015.46
2019-06-01T12:36:28.460Z,1015.44
2019-06-01T12:37:09.276Z,1015.42
2019-06-01T12:38:05.088Z,1015.43
2019-06-01T12:41:04.321Z,1015.37
2019-06-01T12:41:45.618Z,1015.39
2019-06-01T12:42:26.174Z,1015.39
2019-06-01T12:43:07.131Z,1015.38
2019-06-01T12:43:47.824Z,1015.4
2019-06-01T12:44:28.463Z,1015.35
2019-06-01T12:45:09.273Z,1015.35
2019-06-01T12:46:05.287Z,1015.31
2019-06-01T12:46:30.974Z,1015.25
2019-06-01T12:47:11.657Z,1015.28
2019-06-01T12:47:57.656Z,1015.28
2019-06-01T12:48:33.332Z,1015.25
2019-06-01T12:49:13.992Z,1015.27
2019-06-01T12:49:54.662Z,1015.28
2019-06-01T12:50:35.369Z,1015.3
2019-06-01T12:51:15.958Z,1015.3
2019-06-01T12:51:56.656Z,1015.26
2019-06-01T12:52:37.571Z,1015.21
2019-06-01T12:53:18.329Z,1015.23
2019-06-01T12:53:59.123Z,1015.22
2019-06-01T12:54:40.362Z,1015.2
2019-06-01T12:55:20.376Z,1015.19
2019-06-01T12:56:01.273Z,1015.22
2019-06-01T12:56:42.781Z,1015.18
2019-06-01T12:57:23.199Z,1015.22
2019-06-01T12:58:03.839Z,1015.22
2019-06-01T12:58:44.433Z,1015.14
2019-06-01T12:59:25.026Z,1015.21
2019-06-01T13:00:05.773Z,1015.17
2019-06-01T13:00:46.378Z,1015.17
2019-06-01T13:01:26.992Z,1015.15
2019-06-01T13:02:08.451Z,1015.06
2019-06-01T13:02:56.133Z,1015.16
2019-06-01T13:03:29.873Z,1015.11
2019-06-01T13:04:10.515Z,1015.14
2019-06-01T13:04:51.185Z,1015.15
2019-06-01T13:05:31.797Z,1015.14
2019-06-01T13:06:12.358Z,1015.12
2019-06-01T13:06:54.157Z,1015.09
2019-06-01T13:07:33.682Z,1015.07
2019-06-01T13:08:14.324Z,1015.13
2019-06-01T13:08:54.887Z,1015.1
2019-06-01T13:09:35.748Z,1015.06
2019-06-01T13:10:16.369Z,1015.02
2019-06-01T13:10:57.033Z,1015
2019-06-01T13:11:37.782Z,1015.01
2019-06-01T13:12:18.395Z,1015
2019-06-01T13:12:58.987Z,1015.04
2019-06-01T13:13:39.580Z,1015.07
2019-06-01T13:14:20.133Z,1015.08
2019-06-01T13:15:00.700Z,1015.06
2019-06-01T13:17:59.737Z,1015.02
2019-06-01T13:18:41.167Z,1014.95
2019-06-01T13:19:21.064Z,1015.01
2019-06-01T13:20:01.738Z,1014.97
2019-06-01T13:20:43.257Z,1014.93
2019-06-01T13:21:22.861Z,1014.98
2019-06-01T13:22:03.521Z,1014.97
2019-06-01T13:22:44.089Z,1014.99
2019-06-01T13:23:24.664Z,1014.99
2019-06-01T13:24:05.325Z,1014.95
2019-06-01T13:24:46.008Z,1014.93
2019-06-01T13:25:26.620Z,1014.94
2019-06-01T13:26:07.224Z,1014.96
2019-06-01T13:26:47.910Z,1014.93
2019-06-01T13:27:28.431Z,1014.94
2019-06-01T13:28:08.994Z,1014.93
2019-06-01T13:28:50.495Z,1014.89
2019-06-01T13:29:30.191Z,1014.87
2019-06-01T13:30:10.753Z,1014.88
2019-06-01T13:30:52.866Z,1014.88
2019-06-01T13:31:31.950Z,1014.88
2019-06-01T13:32:12.576Z,1014.88
2019-06-01T13:32:53.179Z,1014.85
2019-06-01T13:33:33.792Z,1014.85
2019-06-01T13:34:14.513Z,1014.87
2019-06-01T13:34:55.290Z,1014.83
2019-06-01T13:35:35.932Z,1014.79
2019-06-01T13:36:16.613Z,1014.83
2019-06-01T13:36:57.194Z,1014.79
2019-06-01T13:37:37.808Z,1014.85
2019-06-01T13:38:18.400Z,1014.77
2019-06-01T13:38:59.020Z,1014.81
2019-06-01T13:39:39.599Z,1014.77
2019-06-01T13:40:20.358Z,1014.75
2019-06-01T13:41:00.987Z,1014.76
2019-06-01T13:41:42.872Z,1014.75
2019-06-01T13:42:22.326Z,1014.72
2019-06-01T13:43:02.926Z,1014.74
2019-06-01T13:43:43.746Z,1014.75
2019-06-01T13:44:24.132Z,1014.74
2019-06-01T13:45:04.797Z,1014.71
2019-06-01T13:45:45.427Z,1014.68
2019-06-01T13:46:26.044Z,1014.73
2019-06-01T13:47:06.628Z,1014.68
2019-06-01T13:47:47.698Z,1014.62
2019-06-01T13:48:27.915Z,1014.67
2019-06-01T13:49:08.586Z,1014.68
2019-06-01T13:49:50.091Z,1014.68
2019-06-01T13:50:29.929Z,1014.7
2019-06-01T13:51:10.631Z,1014.7
2019-06-01T13:51:52.516Z,1014.68
2019-06-01T13:52:31.956Z,1014.71
2019-06-01T13:53:12.659Z,1014.67
2019-06-01T13:53:54.546Z,1014.7
2019-06-01T13:54:33.862Z,1014.71
2019-06-01T13:55:14.479Z,1014.73
2019-06-01T13:55:55.067Z,1014.67
2019-06-01T13:56:35.737Z,1014.64
2019-06-01T13:57:16.475Z,1014.68
2019-06-01T13:57:57.112Z,1014.68
2019-06-01T13:58:37.653Z,1014.67
2019-06-01T13:59:18.273Z,1014.66
2019-06-01T13:59:59.106Z,1014.68
2019-06-01T14:00:39.677Z,1014.68
2019-06-01T14:01:20.498Z,1014.59
2019-06-01T14:02:01.274Z,1014.62
2019-06-01T14:02:41.978Z,1014.61
2019-06-01T14:03:22.821Z,1014.61
2019-06-01T14:04:03.512Z,1014.59
2019-06-01T14:04:45.085Z,1014.6
2019-06-01T14:05:24.812Z,1014.63
2019-06-01T14:06:05.425Z,1014.6
2019-06-01T14:06:47.050Z,1014.64
2019-06-01T14:07:26.597Z,1014.65
2019-06-01T14:08:07.206Z,1014.62
2019-06-01T14:08:48.743Z,1014.61
2019-06-01T14:11:47.353Z,1014.62
2019-06-01T14:12:27.405Z,1014.58
2019-06-01T14:13:08.411Z,1014.64
2019-06-01T14:13:49.867Z,1014.56
2019-06-01T14:14:29.743Z,1014.62
2019-06-01T14:15:10.395Z,1014.59
2019-06-01T14:15:51.550Z,1014.59
2019-06-01T14:16:31.717Z,1014.56
2019-06-01T14:17:12.316Z,1014.59
2019-06-01T14:17:54.283Z,1014.57
2019-06-01T14:18:33.499Z,1014.56
2019-06-01T14:19:14.107Z,1014.56
2019-06-01T14:19:55.851Z,1014.51
2019-06-01T14:20:35.306Z,1014.53
2019-06-01T14:21:15.857Z,1014.51
2019-06-01T14:21:56.431Z,1014.52
2019-06-01T14:22:37.046Z,1014.53
2019-06-01T14:23:17.634Z,1014.51
2019-06-01T14:23:58.203Z,1014.46
2019-06-01T14:24:43.395Z,1014.46
2019-06-01T14:25:19.543Z,1014.47
2019-06-01T14:26:00.499Z,1014.43
2019-06-01T14:26:41.058Z,1014.46
2019-06-01T14:27:21.721Z,1014.45
2019-06-01T14:28:02.301Z,1014.42
2019-06-01T14:28:43.018Z,1014.41
2019-06-01T14:29:23.730Z,1014.46
2019-06-01T14:30:04.811Z,1014.39
2019-06-01T14:30:46.404Z,1014.45
2019-06-01T14:31:26.877Z,1014.41
2019-06-01T14:32:07.712Z,1014.49
2019-06-01T14:32:48.777Z,1014.51
2019-06-01T14:33:29.020Z,1014.5
2019-06-01T14:34:09.639Z,1014.49
2019-06-01T14:34:50.932Z,1014.42
2019-06-01T14:35:30.827Z,1014.47
2019-06-01T14:36:11.488Z,1014.51
2019-06-01T14:36:52.670Z,1014.44
2019-06-01T14:37:32.756Z,1014.5
2019-06-01T14:38:13.662Z,1014.48
2019-06-01T14:38:55.069Z,1014.52
2019-06-01T14:39:35.001Z,1014.45
2019-06-01T14:40:15.573Z,1014.47
2019-06-01T14:40:57.296Z,1014.48
2019-06-01T14:41:36.874Z,1014.46
2019-06-01T14:42:17.404Z,1014.46
2019-06-01T14:42:57.965Z,1014.46
2019-06-01T14:43:38.607Z,1014.48
2019-06-01T14:44:19.211Z,1014.5
2019-06-01T14:44:59.969Z,1014.47
2019-06-01T14:45:40.574Z,1014.48
2019-06-01T14:46:21.183Z,1014.49
2019-06-01T14:47:05.641Z,1014.49
2019-06-01T14:47:42.553Z,1014.45
2019-06-01T14:48:23.179Z,1014.46
2019-06-01T14:49:03.836Z,1014.46
2019-06-01T14:49:44.481Z,1014.43
2019-06-01T14:50:25.184Z,1014.46
2019-06-01T14:51:05.793Z,1014.39
2019-06-01T14:51:47.493Z,1014.41
2019-06-01T14:55:00.517Z,1014.44
2019-06-01T14:55:41.151Z,1014.36
2019-06-01T14:56:21.798Z,1014.4
2019-06-01T14:57:02.392Z,1014.36
2019-06-01T14:57:43.049Z,1014.4
2019-06-01T14:58:23.766Z,1014.45
2019-06-01T14:59:04.535Z,1014.42
2019-06-01T14:59:45.155Z,1014.36
2019-06-01T15:00:25.712Z,1014.37
2019-06-01T15:01:06.400Z,1014.34
2019-06-01T15:01:48.138Z,1014.34
2019-06-01T15:02:27.701Z,1014.34
2019-06-01T15:03:08.319Z,1014.4
2019-06-01T15:03:50.601Z,1014.38
2019-06-01T15:04:30.311Z,1014.34
2019-06-01T15:05:10.948Z,1014.34
2019-06-01T15:05:52.349Z,1014.34
2019-06-01T15:06:32.887Z,1014.35
2019-06-01T15:07:13.440Z,1014.3
2019-06-01T15:07:54.458Z,1014.31
2019-06-01T15:08:35.004Z,1014.36
2019-06-01T15:09:19.255Z,1014.37
2019-06-01T15:09:56.367Z,1014.37
2019-06-01T15:10:36.948Z,1014.37
2019-06-01T15:11:17.611Z,1014.31
2019-06-01T15:11:58.709Z,1014.31
2019-06-01T15:12:38.854Z,1014.29
2019-06-01T15:13:19.445Z,1014.3
2019-06-01T15:15:47.735Z,1014.25
2019-06-01T15:16:28.307Z,1014.24
2019-06-01T15:17:08.882Z,1014.31
2019-06-01T15:17:49.443Z,1014.28
2019-06-01T15:18:30.006Z,1014.27
2019-06-01T15:19:10.566Z,1014.24
2019-06-01T15:19:51.876Z,1014.29
2019-06-01T15:20:31.710Z,1014.34
2019-06-01T15:21:12.296Z,1014.28
2019-06-01T15:21:54.025Z,1014.2
2019-06-01T15:22:33.436Z,1014.26
2019-06-01T15:23:13.991Z,1014.25
2019-06-01T15:23:54.561Z,1014.23
2019-06-01T15:24:35.131Z,1014.21
2019-06-01T15:25:15.704Z,1014.24
2019-06-01T15:25:56.441Z,1014.19
2019-06-01T15:26:36.841Z,1014.25
2019-06-01T15:27:17.410Z,1014.22
2019-06-01T15:27:58.863Z,1014.26
2019-06-01T15:28:38.527Z,1014.19
2019-06-01T15:29:19.075Z,1014.21
2019-06-01T15:29:59.659Z,1014.21
2019-06-01T15:30:40.225Z,1014.22
2019-06-01T15:31:20.799Z,1014.14
2019-06-01T15:32:02.263Z,1014.22
2019-06-01T15:32:41.957Z,1014.16
2019-06-01T15:33:22.534Z,1014.21
2019-06-01T15:34:03.106Z,1014.17
2019-06-01T15:34:43.660Z,1014.16
2019-06-01T15:35:24.236Z,1014.16
2019-06-01T15:36:04.812Z,1014.15
2019-06-01T15:36:45.377Z,1014.13
2019-06-01T15:37:25.978Z,1014.15
2019-06-01T15:38:06.547Z,1014.13
2019-06-01T15:38:47.113Z,1014.11
2019-06-01T15:39:27.671Z,1014.14
2019-06-01T15:40:08.244Z,1014.14
2019-06-01T15:40:48.800Z,1014.11
2019-06-01T15:41:29.370Z,1014.1
2019-06-01T15:42:09.932Z,1014.09
2019-06-01T15:42:51.801Z,1014.1
2019-06-01T15:43:31.066Z,1014.04
2019-06-01T15:44:11.648Z,1014.07